Time,TemperatureF,DewpointF,PressureIn,WindDirection,WindDirectionDegrees,WindSpeedMPH,WindSpeedGustMPH,Humidity,HourlyPrecipIn,Conditions,Clouds,dailyrainin,SoftwareType,DateUTC
2013-12-24 00:52:00,43.0,34.0,30.20,NE,45,5.0,9.0,68,-99.99,,,-99.99,,2013-12-24 05:52:00,
2013-12-24 01:52:00,43.0,32.0,30.21,East,95,4.0,10.0,66,-99.99,,,-99.99,,2013-12-24 06:52:00,
2013-12-24 02:52:00,41.0,30.0,-100.00,NNW,335,5.0,12.0,64,-99.99,,,-99.99,,2013-12-24 07:52:00,
2013-12-24 03:52:00,40.0,29.0,-100.00,East,95,4.0,13.0,64,-99.99,,,-99.99,,2013-12-24 08:52:00,
2013-12-24 04:11:00,40.0,29.0,30.22,NNW,347,3.0,9.0,64,-99.99,,,-99.99,,2013-12-24 09:11:00,
2013-12-24 04:53:00,40.0,29.0,30.20,NW,315,4.0,8.0,64,-99.99,,,-99.99,,2013-12-24 09:53:00,
2013-12-24 05:52:00,39.0,27.0,30.20,NNW,340,5.0,11.0,62,-99.99,,,-99.99,,2013-12-24 10:52:00,
2013-12-24 06:12:00,38.0,25.0,30.21,NNE,20,6.0,16.0,59,-99.99,,,-99.99,,2013-12-24 11:12:00,
2013-12-24 06:52:00,37.0,25.0,30.21,North,8,5.0,13.0,61,-99.99,,,-99.99,,2013-12-24 11:52:00,
2013-12-24 07:52:00,36.0,24.0,-100.00,NE,42,3.0,6.0,63,-99.99,,,-99.99,,2013-12-24 12:52:00,
2013-12-24 08:52:00,35.0,24.0,-100.00,NNW,343,2.0,9.0,64,-99.99,,,-99.99,,2013-12-24 13:52:00,
2013-12-24 09:11:00,36.0,24.0,30.28,NE,37,4.0,9.0,62,-99.99,,,-99.99,,2013-12-24 14:11:00,
2013-12-24 09:52:00,37.0,24.0,30.30,NNW,343,5.0,11.0,57,-99.99,,,-99.99,,2013-12-24 14:52:00,
2013-12-24 10:11:00,38.0,23.0,30.29,North,0,7.0,14.0,54,-99.99,,,-99.99,,2013-12-24 15:11:00,
2013-12-24 10:53:00,39.0,23.0,30.28,NNE,12,5.0,13.0,53,-99.99,,,-99.99,,2013-12-24 15:53:00,
2013-12-24 11:53:00,41.0,23.0,30.28,ENE,76,5.0,13.0,49,-99.99,,,-99.99,,2013-12-24 16:53:00,
2013-12-24 12:12:00,41.0,23.0,30.27,NNE,25,5.0,9.0,47,-99.99,,,-99.99,,2013-12-24 17:12:00,
2013-12-24 12:52:00,42.0,25.0,30.26,WNW,293,5.0,13.0,49,-99.99,,,-99.99,,2013-12-24 17:52:00,
2013-12-24 13:52:00,43.0,25.0,30.26,West,272,5.0,11.0,48,-99.99,,,-99.99,,2013-12-24 18:52:00,
2013-12-24 14:12:00,44.0,25.0,30.26,NNE,16,7.0,15.0,47,-99.99,,,-99.99,,2013-12-24 19:12:00,
2013-12-24 14:52:00,44.0,26.0,30.26,NW,324,5.0,14.0,49,-99.99,,,-99.99,,2013-12-24 19:52:00,
2013-12-24 15:52:00,42.0,26.0,30.28,NW,312,5.0,9.0,52,-99.99,,,-99.99,,2013-12-24 20:52:00,
2013-12-24 16:53:00,42.0,21.0,30.30,NNW,348,6.0,12.0,42,-99.99,,,-99.99,,2013-12-24 21:53:00,
2013-12-24 17:53:00,39.0,23.0,30.32,West,266,2.0,4.0,52,-99.99,,,-99.99,,2013-12-24 22:53:00,
2013-12-24 18:12:00,37.0,23.0,30.33,NNW,339,3.0,7.0,55,-99.99,,,-99.99,,2013-12-24 23:12:00,
2013-12-24 18:53:00,38.0,21.0,-100.00,SSW,205,3.0,6.0,50,-99.99,,,-99.99,,2013-12-24 23:53:00,
2013-12-24 19:22:00,37.0,20.0,-100.00,NW,326,3.0,7.0,49,-99.99,,,-99.99,,2013-12-25 00:22:00,
2013-12-24 19:52:00,37.0,18.0,30.39,NE,42,4.0,8.0,45,-99.99,,,-99.99,,2013-12-25 00:52:00,
2013-12-24 20:11:00,37.0,19.0,30.40,WSW,251,3.0,9.0,47,-99.99,,,-99.99,,2013-12-25 01:11:00,
2013-12-24 20:52:00,36.0,17.0,30.42,NW,321,3.0,8.0,46,-99.99,,,-99.99,,2013-12-25 01:52:00,
2013-12-24 21:11:00,35.0,15.0,-100.00,NNE,13,6.0,15.0,43,-99.99,,,-99.99,,2013-12-25 02:11:00,
2013-12-24 21:53:00,33.0,11.0,30.45,North,354,4.0,10.0,38,-99.99,,,-99.99,,2013-12-25 02:53:00,
2013-12-24 22:12:00,32.0,10.0,30.46,North,8,4.0,8.0,38,-99.99,,,-99.99,,2013-12-25 03:12:00,
2013-12-24 22:53:00,31.0,11.0,-100.00,NW,315,3.0,11.0,41,-99.99,,,-99.99,,2013-12-25 03:53:00,
2013-12-24 23:13:00,31.0,11.0,30.48,NW,310,3.0,8.0,42,-99.99,,,-99.99,,2013-12-25 04:13:00,
2013-12-24 23:53:00,30.0,11.0,-100.00,NNW,340,2.0,5.0,44,-99.99,,,-99.99,,2013-12-25 04:53:00,